Time;durP1;ratioP1;P1;durP2;ratioP2;P2;SDS_P1;SDS_P2;PMS_P1;PMS_P2;Temp;Humidity;BMP_temperature;BMP_pressure;BME280_temperature;BME280_humidity;BME280_pressure;Samples;Min_cycle;Max_cycle;Signal;HPM_P1;HPM_P2
2022/04/24 00:00:18;;;;;;;1.65;0.65;;;;;;;12.84;49.17;93392.50;4985396;28;20029;-71
2022/04/24 00:02:45;;;;;;;0.95;0.77;;;;;;;12.86;49.04;93408.16;4992684;28;20053;-72
2022/04/24 00:05:11;;;;;;;1.73;0.73;;;;;;;12.73;49.53;93402.06;4989593;28;20486;-71
2022/04/24 00:07:37;;;;;;;0.73;0.70;;;;;;;12.75;49.28;93405.19;4984982;28;20061;-72
2022/04/24 00:10:03;;;;;;;1.58;0.93;;;;;;;12.24;49.36;93331.97;4980874;28;20026;-71
2022/04/24 00:12:28;;;;;;;3.83;0.80;;;;;;;12.65;49.21;93392.31;4991238;28;20259;-71
2022/04/24 00:14:54;;;;;;;2.13;0.80;;;;;;;12.73;49.49;93407.41;4986801;28;20105;-72
2022/04/24 00:17:20;;;;;;;2.65;0.85;;;;;;;12.62;49.39;93390.28;4989929;28;20457;-72
2022/04/24 00:19:50;;;;;;;1.73;0.80;;;;;;;12.69;49.38;93406.53;4986567;28;20041;-72
2022/04/24 00:22:15;;;;;;;1.45;0.80;;;;;;;12.60;49.51;93397.88;4987818;28;20283;-72
2022/04/24 00:24:40;;;;;;;4.68;0.90;;;;;;;12.61;49.32;93398.66;4991489;28;20401;-72
2022/04/24 00:27:07;;;;;;;5.45;0.90;;;;;;;12.57;49.45;93406.50;4988049;28;20610;-71
2022/04/24 00:29:33;;;;;;;2.05;1.05;;;;;;;12.53;49.49;93413.63;4990002;28;20561;-72
2022/04/24 00:31:58;;;;;;;3.10;1.30;;;;;;;12.57;49.76;93414.50;4981667;28;20387;-72
2022/04/24 00:34:23;;;;;;;2.58;1.30;;;;;;;12.38;49.69;93396.41;4993677;28;20584;-72
2022/04/24 00:36:49;;;;;;;2.28;1.25;;;;;;;12.55;49.82;93415.97;4980472;28;20037;-71
2022/04/24 00:39:14;;;;;;;2.40;1.00;;;;;;;12.61;49.71;93409.31;4992212;28;20042;-71
2022/04/24 00:41:48;;;;;;;1.70;0.90;;;;;;;12.56;49.83;93402.28;4989982;28;20428;-70
2022/04/24 00:44:15;;;;;;;3.33;1.27;;;;;;;12.54;50.04;93409.06;5002603;28;20048;-71
2022/04/24 00:46:49;;;;;;;2.35;1.73;;;;;;;12.48;50.06;93405.84;4983690;28;20109;-71
2022/04/24 00:49:14;;;;;;;3.85;0.80;;;;;;;12.53;50.12;93407.50;5003206;28;20030;-72
2022/04/24 00:51:42;;;;;;;2.60;0.90;;;;;;;12.54;49.98;93409.84;4989385;28;20048;-72
2022/04/24 00:54:08;;;;;;;1.27;0.70;;;;;;;12.54;49.77;93409.84;4982305;28;20038;-70
2022/04/24 00:56:38;;;;;;;0.95;0.70;;;;;;;12.47;49.65;93418.38;4988291;28;20124;-72
2022/04/24 00:59:05;;;;;;;0.95;0.80;;;;;;;12.23;49.88;93390.94;4987989;28;20329;-72
2022/04/24 01:01:32;;;;;;;1.30;0.80;;;;;;;12.46;49.63;93419.53;4994288;28;20026;-71
2022/04/24 01:04:02;;;;;;;1.80;0.85;;;;;;;12.46;49.68;93410.75;4989363;28;20042;-71
2022/04/24 01:06:31;;;;;;;4.53;0.80;;;;;;;12.36;49.44;93408.53;4985491;28;20049;-72
2022/04/24 01:09:20;;;;;;;2.67;0.75;;;;;;;12.26;49.67;93404.41;4988022;28;20030;-72
2022/04/24 01:11:48;;;;;;;1.10;0.85;;;;;;;12.28;49.55;93420.06;4993329;28;20054;-71
2022/04/24 01:14:16;;;;;;;1.45;0.80;;;;;;;12.17;49.37;93408.28;4983951;28;20069;-71
2022/04/24 01:16:42;;;;;;;1.27;1.02;;;;;;;12.19;50.05;93427.38;4992829;28;20152;-72
2022/04/24 01:19:08;;;;;;;1.05;0.60;;;;;;;12.19;50.05;93430.03;4989650;28;20062;-71
2022/04/24 01:21:34;;;;;;;2.70;0.88;;;;;;;12.21;49.93;93433.16;4980462;28;20133;-72
2022/04/24 01:23:59;;;;;;;1.05;0.70;;;;;;;12.12;49.84;93435.16;4990370;28;20125;-71
2022/04/24 01:26:26;;;;;;;1.65;1.05;;;;;;;12.08;50.08;93423.63;4985088;28;20040;-72
2022/04/24 01:28:52;;;;;;;2.13;0.80;;;;;;;11.99;50.08;93421.81;4992875;28;20209;-71
2022/04/24 01:31:17;;;;;;;1.42;0.88;;;;;;;12.10;49.89;93432.03;4991859;28;20045;-72
2022/04/24 01:33:45;;;;;;;0.90;0.73;;;;;;;11.85;50.07;93404.56;4983419;28;21135;-71
2022/04/24 01:36:11;;;;;;;0.73;0.73;;;;;;;12.02;50.10;93436.38;4995913;28;20121;-73
2022/04/24 01:38:36;;;;;;;3.25;1.08;;;;;;;11.85;49.97;93420.56;4989967;28;20053;-73
2022/04/24 01:41:01;;;;;;;1.02;0.80;;;;;;;11.93;49.80;93443.69;4995475;28;20045;-72
2022/04/24 01:43:28;;;;;;;0.73;0.60;;;;;;;11.91;49.98;93441.34;4987724;28;21517;-71
2022/04/24 01:45:53;;;;;;;1.85;0.80;;;;;;;11.93;49.73;93441.00;4994455;28;20329;-73
2022/04/24 01:48:20;;;;;;;1.90;1.00;;;;;;;11.72;50.03;93421.63;4990426;28;20591;-71
2022/04/24 01:50:45;;;;;;;2.58;1.67;;;;;;;11.74;50.42;93430.84;4982112;28;20045;-71
2022/04/24 01:53:11;;;;;;;3.75;1.17;;;;;;;11.74;50.13;93436.16;4993673;28;20034;-71
2022/04/24 01:55:36;;;;;;;1.52;0.95;;;;;;;11.76;50.30;93444.63;4988838;28;20038;-72
2022/04/24 01:58:02;;;;;;;3.80;1.10;;;;;;;11.62;50.39;93428.16;4995726;28;20018;-72
2022/04/24 02:00:29;;;;;;;2.35;0.93;;;;;;;11.66;50.63;93445.03;4987467;28;20026;-71
2022/04/24 02:02:55;;;;;;;1.13;0.88;;;;;;;11.71;50.46;93452.81;4994155;28;20393;-72
2022/04/24 02:05:20;;;;;;;1.33;0.90;;;;;;;11.60;50.69;93441.00;4990564;28;20042;-72
2022/04/24 02:07:46;;;;;;;1.45;1.10;;;;;;;11.59;50.55;93450.09;4987336;28;20390;-72
2022/04/24 02:10:11;;;;;;;2.60;1.17;;;;;;;11.53;50.49;93446.88;4994456;28;20032;-72
2022/04/24 02:12:40;;;;;;;2.00;1.05;;;;;;;11.61;50.50;93453.22;4990691;28;20595;-71
2022/04/24 02:15:07;;;;;;;2.38;1.70;;;;;;;11.49;50.54;93432.63;4987216;28;20041;-72
2022/04/24 02:17:34;;;;;;;3.25;1.77;;;;;;;11.62;50.57;93449.47;4990364;28;20541;-72
2022/04/24 02:19:59;;;;;;;2.08;1.70;;;;;;;11.53;50.66;93444.22;4991309;28;20030;-72
2022/04/24 02:22:43;;;;;;;13.27;2.10;;;;;;;11.63;50.62;93456.34;4986351;28;20040;-69
2022/04/24 02:25:09;;;;;;;2.50;1.42;;;;;;;11.46;50.44;93445.81;4992466;28;20363;-73
2022/04/24 02:27:34;;;;;;;3.15;1.70;;;;;;;11.43;50.72;93443.81;4988049;28;20021;-72
2022/04/24 02:30:00;;;;;;;5.82;2.42;;;;;;;11.47;50.98;93452.69;4989723;28;20049;-72
2022/04/24 02:32:26;;;;;;;5.28;2.10;;;;;;;11.45;51.17;93447.69;4992059;28;20172;-71
2022/04/24 02:34:52;;;;;;;4.80;1.92;;;;;;;11.40;51.03;93450.56;4989552;28;20524;-69
2022/04/24 02:37:17;;;;;;;6.57;2.78;;;;;;;11.40;51.37;93457.75;4984719;28;20088;-71
2022/04/24 02:39:43;;;;;;;2.75;1.20;;;;;;;11.26;51.15;93436.75;4989827;28;20637;-73
2022/04/24 02:42:09;;;;;;;3.17;1.27;;;;;;;11.35;50.97;93449.97;4994108;28;20030;-71
2022/04/24 02:44:34;;;;;;;4.78;0.90;;;;;;;11.37;50.78;93458.44;4988318;28;20025;-72
2022/04/24 02:47:00;;;;;;;3.80;0.93;;;;;;;11.30;50.57;93442.19;4989878;28;20113;-72
2022/04/24 02:49:25;;;;;;;1.27;0.88;;;;;;;11.35;50.61;93450.75;4991516;28;20451;-72
2022/04/24 02:51:51;;;;;;;2.50;1.35;;;;;;;11.22;50.81;93427.06;4980627;28;20751;-71
2022/04/24 02:54:16;;;;;;;0.90;0.77;;;;;;;11.26;50.62;93462.56;4994578;28;20030;-71
2022/04/24 02:56:41;;;;;;;3.63;0.80;;;;;;;11.21;50.90;93444.13;4979669;28;20046;-71
2022/04/24 02:59:07;;;;;;;2.78;0.70;;;;;;;10.92;50.76;93405.84;4995343;28;20034;-71
2022/04/24 03:01:34;;;;;;;3.05;0.85;;;;;;;11.29;50.56;93459.28;4993883;28;20186;-73
2022/04/24 03:03:59;;;;;;;1.35;0.98;;;;;;;11.09;51.00;93458.19;4988092;28;20026;-72
2022/04/24 03:06:25;;;;;;;10.30;1.52;;;;;;;11.12;51.01;93463.63;4991224;28;20088;-73
2022/04/24 03:08:50;;;;;;;2.65;0.88;;;;;;;10.81;51.40;93441.91;4983366;28;20029;-71
2022/04/24 03:11:16;;;;;;;1.95;1.20;;;;;;;10.90;51.82;93455.19;4991144;28;20145;-73
2022/04/24 03:13:42;;;;;;;2.20;1.25;;;;;;;11.03;51.70;93467.44;4986064;28;20121;-71
2022/04/24 03:16:08;;;;;;;1.73;0.90;;;;;;;10.77;51.43;93433.03;4986514;28;20382;-71
2022/04/24 03:18:33;;;;;;;4.00;1.00;;;;;;;10.97;51.84;93480.16;4991878;28;20044;-71
2022/04/24 03:20:59;;;;;;;1.77;1.08;;;;;;;10.90;51.79;93471.94;4993180;28;20029;-70
2022/04/24 03:23:25;;;;;;;1.80;0.90;;;;;;;11.02;51.34;93479.19;4993667;28;20045;-72
2022/04/24 03:25:50;;;;;;;4.63;1.00;;;;;;;11.01;51.46;93488.28;4991815;28;20042;-72
2022/04/24 03:28:17;;;;;;;5.47;0.90;;;;;;;10.95;51.58;93471.75;4991190;28;20115;-72
2022/04/24 03:30:42;;;;;;;2.13;1.40;;;;;;;10.92;51.28;93467.03;4989805;28;20037;-72
2022/04/24 03:33:08;;;;;;;2.00;0.70;;;;;;;11.02;51.30;93482.63;4989547;28;20026;-71
2022/04/24 03:35:33;;;;;;;1.67;0.90;;;;;;;11.00;51.22;93490.16;4993622;28;20043;-71
2022/04/24 03:37:59;;;;;;;3.03;1.17;;;;;;;10.91;51.69;93481.44;4985611;28;20680;-71
2022/04/24 03:40:24;;;;;;;1.30;1.00;;;;;;;11.01;51.67;93494.38;4991227;28;20047;-71
2022/04/24 03:42:50;;;;;;;1.08;0.82;;;;;;;10.90;51.33;93476.47;4995456;28;20489;-72
2022/04/24 03:45:15;;;;;;;2.30;0.77;;;;;;;11.05;51.50;93489.19;4993852;28;20037;-70
2022/04/24 03:47:41;;;;;;;1.90;0.82;;;;;;;11.06;51.27;93486.19;4993411;28;20038;-70
2022/04/24 03:50:07;;;;;;;1.38;1.23;;;;;;;10.89;51.73;93465.03;4995426;28;20509;-69
2022/04/24 03:52:33;;;;;;;3.90;0.80;;;;;;;10.83;51.50;93458.34;4982186;28;20448;-71
2022/04/24 03:54:59;;;;;;;1.50;0.80;;;;;;;10.95;51.57;93474.41;4994952;28;20390;-72
2022/04/24 03:57:25;;;;;;;0.93;0.77;;;;;;;11.08;51.72;93489.31;4983946;28;20773;-72
2022/04/24 03:59:50;;;;;;;2.38;1.05;;;;;;;11.04;51.40;93469.00;4985565;28;20041;-73
2022/04/24 04:02:16;;;;;;;3.75;1.80;;;;;;;11.04;51.65;93461.81;4990930;28;20034;-72
2022/04/24 04:04:42;;;;;;;5.15;1.75;;;;;;;11.22;51.47;93488.28;4988787;28;20125;-72
2022/04/24 04:07:07;;;;;;;2.00;1.15;;;;;;;11.20;51.81;93477.22;4990935;28;20620;-70
2022/04/24 04:09:33;;;;;;;3.10;1.65;;;;;;;11.18;51.90;93472.97;4986637;28;20492;-72
2022/04/24 04:11:58;;;;;;;4.38;2.30;;;;;;;11.43;52.09;93494.41;4996330;28;20042;-72
2022/04/24 04:14:24;;;;;;;6.32;2.65;;;;;;;11.53;51.94;93486.06;4980888;28;20409;-72
2022/04/24 04:16:50;;;;;;;5.57;2.10;;;;;;;11.60;51.91;93494.28;4989800;28;20030;-72
2022/04/24 04:19:16;;;;;;;4.50;3.22;;;;;;;11.66;52.16;93485.00;4983312;28;20843;-72
2022/04/24 04:21:43;;;;;;;4.63;2.10;;;;;;;11.77;52.10;93493.34;4989280;28;20030;-70
2022/04/24 04:24:09;;;;;;;2.85;2.03;;;;;;;11.84;52.06;93489.03;4986128;28;20147;-71
2022/04/24 04:26:36;;;;;;;4.10;2.30;;;;;;;11.97;52.36;93490.66;4990048;28;20458;-72
2022/04/24 04:29:02;;;;;;;4.93;1.98;;;;;;;12.01;52.43;93478.22;4993454;28;20038;-73
2022/04/24 04:31:30;;;;;;;3.53;2.42;;;;;;;12.20;52.02;93487.59;4985457;28;20093;-70
2022/04/24 04:33:56;;;;;;;6.63;2.63;;;;;;;12.37;51.88;93503.41;4993688;28;20071;-72
2022/04/24 04:36:21;;;;;;;4.60;2.85;;;;;;;12.53;51.85;93504.31;4986870;28;20121;-70
2022/04/24 04:38:46;;;;;;;11.27;2.88;;;;;;;12.55;51.05;93502.09;4986622;28;20041;-71
2022/04/24 04:41:12;;;;;;;4.25;2.95;;;;;;;12.62;51.36;93518.34;4984064;28;20118;-73
2022/04/24 04:43:37;;;;;;;6.55;3.25;;;;;;;12.77;51.37;93508.91;4990491;28;20121;-72
2022/04/24 04:46:03;;;;;;;6.22;4.07;;;;;;;12.26;51.68;93505.72;4990343;28;20707;-72
2022/04/24 04:48:28;;;;;;;4.60;3.33;;;;;;;12.68;50.88;93517.03;4980099;28;21017;-73
2022/04/24 04:50:54;;;;;;;7.78;3.55;;;;;;;12.78;50.34;93521.91;4990152;28;20073;-71
2022/04/24 04:53:21;;;;;;;6.07;3.97;;;;;;;12.81;50.27;93521.25;4990801;28;20038;-72
2022/04/24 04:55:46;;;;;;;6.60;3.80;;;;;;;12.76;49.99;93515.38;4989942;28;20592;-72
2022/04/24 04:58:12;;;;;;;6.68;3.08;;;;;;;12.77;50.36;93523.03;4993486;28;20080;-72
2022/04/24 05:00:37;;;;;;;5.35;3.15;;;;;;;12.75;50.52;93519.94;4988693;28;20033;-72
2022/04/24 05:03:03;;;;;;;7.20;4.15;;;;;;;12.70;50.81;93530.03;4995584;28;20039;-72
2022/04/24 05:05:28;;;;;;;10.20;4.18;;;;;;;12.21;52.27;93531.81;4990350;28;20123;-72
2022/04/24 05:07:54;;;;;;;11.15;4.88;;;;;;;12.17;52.42;93528.25;4998125;28;20655;-71
2022/04/24 05:10:19;;;;;;;9.23;4.78;;;;;;;12.29;51.91;93523.72;4991313;28;20046;-71
2022/04/24 05:12:45;;;;;;;8.13;4.82;;;;;;;12.04;52.77;93533.53;4995030;28;20025;-72
2022/04/24 05:15:13;;;;;;;6.70;4.72;;;;;;;12.29;52.55;93517.59;4992621;28;20589;-73
2022/04/24 05:17:39;;;;;;;7.78;5.47;;;;;;;12.45;52.23;93529.19;4987808;28;20053;-72
2022/04/24 05:20:13;;;;;;;9.13;5.07;;;;;;;11.88;53.93;93515.84;4993940;28;20045;-73
2022/04/24 05:22:40;;;;;;;12.87;6.77;;;;;;;11.14;56.44;93545.81;4998072;28;20516;-72
2022/04/24 05:25:09;;;;;;;15.00;6.82;;;;;;;11.39;56.46;93536.09;4991490;28;20033;-73
2022/04/24 05:27:39;;;;;;;17.40;10.23;;;;;;;11.90;55.66;93524.25;4987597;28;20477;-72
2022/04/24 05:30:07;;;;;;;29.98;16.52;;;;;;;11.56;56.43;93536.00;4991850;28;20030;-72
2022/04/24 05:32:39;;;;;;;15.23;9.40;;;;;;;11.68;56.27;93533.41;4985849;28;20033;-71
2022/04/24 05:35:05;;;;;;;12.70;7.47;;;;;;;11.52;56.70;93509.25;4997643;28;20034;-72
2022/04/24 05:37:31;;;;;;;10.13;6.57;;;;;;;11.88;56.67;93527.25;4990322;28;20488;-71
2022/04/24 05:39:56;;;;;;;7.35;5.30;;;;;;;11.09;56.75;93512.19;4991524;28;20472;-71
2022/04/24 05:42:21;;;;;;;9.75;5.43;;;;;;;11.35;57.09;93524.53;4989417;28;20028;-73
2022/04/24 05:44:47;;;;;;;9.73;5.65;;;;;;;11.55;57.51;93513.13;4986306;28;21249;-72
2022/04/24 05:47:12;;;;;;;12.68;6.68;;;;;;;11.57;57.48;93521.56;4991781;28;20563;-73
2022/04/24 05:49:37;;;;;;;12.05;5.32;;;;;;;11.60;57.32;93535.00;4984801;28;20038;-72
2022/04/24 05:52:03;;;;;;;9.90;6.30;;;;;;;11.72;56.90;93526.31;4990196;28;20034;-72
2022/04/24 05:54:30;;;;;;;10.35;5.75;;;;;;;11.92;57.09;93522.06;4993016;28;20029;-71
2022/04/24 05:56:55;;;;;;;10.30;5.53;;;;;;;11.74;58.10;93529.41;4984950;28;20037;-72
2022/04/24 05:59:20;;;;;;;13.30;6.45;;;;;;;11.51;58.11;93501.56;4990000;28;20042;-72
2022/04/24 06:01:49;;;;;;;11.75;6.55;;;;;;;11.82;58.03;93528.56;5009755;28;21463;-69
2022/04/24 06:04:15;;;;;;;8.32;6.20;;;;;;;11.66;57.57;93514.28;5008131;28;20029;-72
2022/04/24 06:06:40;;;;;;;10.10;5.82;;;;;;;11.79;57.29;93525.75;4994663;28;20541;-72
2022/04/24 06:09:06;;;;;;;11.70;6.78;;;;;;;11.92;58.27;93525.50;4989125;28;20096;-71
2022/04/24 06:11:32;;;;;;;10.02;5.68;;;;;;;11.93;57.66;93511.06;4995886;28;20084;-72
2022/04/24 06:13:57;;;;;;;9.70;5.97;;;;;;;12.12;56.82;93515.91;4983410;28;20505;-72
2022/04/24 06:16:23;;;;;;;8.02;5.47;;;;;;;12.78;54.67;93524.59;4996614;28;20058;-72
2022/04/24 06:18:48;;;;;;;9.52;4.72;;;;;;;12.16;54.44;93505.38;4991650;28;20064;-72
2022/04/24 06:21:13;;;;;;;7.47;4.43;;;;;;;12.94;53.74;93522.03;4990550;28;20081;-71
2022/04/24 06:23:39;;;;;;;10.50;5.13;;;;;;;13.38;52.97;93514.97;4990931;28;20046;-72
2022/04/24 06:26:04;;;;;;;7.38;3.47;;;;;;;13.09;52.29;93491.22;4984575;28;20505;-72
2022/04/24 06:28:30;;;;;;;8.00;3.50;;;;;;;13.32;51.99;93503.75;4993358;28;20041;-73
2022/04/24 06:30:55;;;;;;;4.22;2.75;;;;;;;12.84;51.37;93487.78;4993469;28;20029;-71
2022/04/24 06:33:21;;;;;;;3.50;2.53;;;;;;;13.37;51.15;93496.59;4991420;28;20049;-72
2022/04/24 06:35:46;;;;;;;3.25;2.92;;;;;;;13.91;50.28;93513.06;4993886;28;20524;-73
2022/04/24 06:38:12;;;;;;;4.55;2.65;;;;;;;13.49;49.31;93491.25;4984384;28;20038;-71
2022/04/24 06:40:38;;;;;;;6.07;3.40;;;;;;;14.15;49.26;93507.59;4987707;28;20556;-72
2022/04/24 06:43:05;;;;;;;6.10;2.95;;;;;;;14.47;48.61;93516.47;4985979;28;20103;-71
2022/04/24 06:45:35;;;;;;;9.98;3.45;;;;;;;14.85;47.56;93513.22;4998549;28;20065;-72
2022/04/24 06:48:01;;;;;;;9.75;2.60;;;;;;;14.70;47.02;93516.66;5004234;28;20037;-72
2022/04/24 06:50:29;;;;;;;4.88;2.88;;;;;;;14.47;47.81;93516.47;4960433;28;20222;-71
2022/04/24 06:53:18;;;;;;;7.65;2.55;;;;;;;14.90;46.72;93510.28;4982149;28;20045;-72
2022/04/24 06:55:44;;;;;;;3.03;2.50;;;;;;;14.78;47.73;93503.09;4991943;28;20041;-70
2022/04/24 06:58:12;;;;;;;9.38;2.95;;;;;;;13.94;48.34;93419.59;5000851;28;20087;-71
2022/04/24 07:00:39;;;;;;;2.58;2.05;;;;;;;14.38;48.74;93513.94;4992077;28;20018;-72
2022/04/24 07:03:21;;;;;;;6.30;2.35;;;;;;;14.25;48.79;93504.44;4986815;28;20531;-71
2022/04/24 07:05:47;;;;;;;3.58;1.98;;;;;;;13.83;49.32;93489.94;4987362;28;20077;-71
2022/04/24 07:08:12;;;;;;;2.80;2.10;;;;;;;13.99;49.08;93502.22;4990795;28;20042;-71
2022/04/24 07:10:38;;;;;;;2.72;2.10;;;;;;;14.47;48.90;93503.84;4986795;28;20093;-72
2022/04/24 07:13:05;;;;;;;4.25;2.10;;;;;;;14.91;48.45;93482.38;4985392;28;20551;-72
2022/04/24 07:15:36;;;;;;;4.15;2.10;;;;;;;15.20;47.78;93500.66;4988749;28;20033;-72
2022/04/24 07:18:02;;;;;;;8.80;4.18;;;;;;;15.36;46.48;93479.94;4990402;28;20141;-72
2022/04/24 07:20:29;;;;;;;5.07;3.38;;;;;;;15.07;47.22;93467.03;4981541;28;20116;-72
2022/04/24 07:23:02;;;;;;;2.97;2.17;;;;;;;15.46;46.59;93478.63;4980677;28;20033;-72
2022/04/24 07:25:33;;;;;;;3.75;1.60;;;;;;;15.90;44.92;93479.13;4991782;28;20251;-71
2022/04/24 07:27:58;;;;;;;4.38;1.80;;;;;;;15.57;45.49;93460.09;4988317;28;20025;-71
2022/04/24 07:30:24;;;;;;;4.45;1.55;;;;;;;15.40;46.30;93477.34;4986423;28;20414;-73
2022/04/24 07:32:52;;;;;;;2.22;1.80;;;;;;;15.04;46.27;93467.75;4986138;28;20490;-71
2022/04/24 07:35:23;;;;;;;5.40;2.28;;;;;;;15.18;45.68;93473.41;4984506;28;20081;-72
2022/04/24 07:37:49;;;;;;;3.30;1.70;;;;;;;15.13;45.82;93460.28;4980102;28;20034;-71
2022/04/24 07:40:17;;;;;;;5.63;2.35;;;;;;;15.13;45.76;93454.16;4986605;28;20025;-72
2022/04/24 07:42:55;;;;;;;2.90;1.38;;;;;;;15.26;46.50;93475.13;5001780;28;20062;-72
2022/04/24 07:45:56;;;;;;;6.28;1.65;;;;;;;15.30;45.42;93469.84;5006686;28;20050;-72
2022/04/24 07:48:22;;;;;;;1.42;1.23;;;;;;;15.21;44.43;93478.06;4971274;28;20042;-73
2022/04/24 07:50:50;;;;;;;2.33;1.25;;;;;;;15.16;44.89;93480.22;4981423;28;20053;-70
2022/04/24 07:53:16;;;;;;;2.55;1.77;;;;;;;15.54;44.57;93474.22;4969674;28;20054;-72
2022/04/24 07:55:47;;;;;;;2.53;1.45;;;;;;;15.51;44.73;93472.22;4969993;28;20042;-72
2022/04/24 07:58:13;;;;;;;2.53;1.70;;;;;;;15.56;44.67;93478.06;4986346;28;20026;-72
2022/04/24 08:00:40;;;;;;;2.35;1.33;;;;;;;15.52;44.34;93473.78;4991455;28;20544;-70
2022/04/24 08:03:07;;;;;;;3.95;1.63;;;;;;;15.78;43.82;93463.22;4980672;28;20643;-72
2022/04/24 08:05:38;;;;;;;4.68;1.60;;;;;;;15.85;44.82;93463.31;4983168;28;20425;-72
2022/04/24 08:08:10;;;;;;;4.47;1.52;;;;;;;16.10;43.48;93459.22;4986214;28;20033;-71
2022/04/24 08:10:38;;;;;;;3.38;1.20;;;;;;;16.06;42.43;93441.50;4985439;28;20505;-71
2022/04/24 08:13:05;;;;;;;3.20;1.30;;;;;;;16.19;41.61;93445.56;4980937;28;20276;-73
2022/04/24 08:15:33;;;;;;;2.15;1.63;;;;;;;16.50;42.77;93434.63;4984155;28;20409;-72
2022/04/24 08:18:00;;;;;;;5.35;1.42;;;;;;;16.33;41.73;93445.09;4983132;28;20038;-72
2022/04/24 08:20:26;;;;;;;2.60;1.52;;;;;;;16.16;42.17;93433.66;4985922;28;20077;-72
2022/04/24 08:22:53;;;;;;;3.90;1.65;;;;;;;16.07;42.61;93438.47;4985099;28;20121;-72
2022/04/24 08:25:20;;;;;;;3.45;1.80;;;;;;;16.46;42.44;93433.03;4984115;28;20045;-72
2022/04/24 08:27:47;;;;;;;4.78;1.65;;;;;;;16.31;42.90;93432.78;4981047;28;20121;-72
2022/04/24 08:30:13;;;;;;;7.88;1.50;;;;;;;16.13;42.55;93434.38;4987349;28;20046;-72
2022/04/24 08:32:41;;;;;;;1.80;1.42;;;;;;;16.52;43.55;93428.91;4984850;28;20172;-74
2022/04/24 08:35:08;;;;;;;2.97;1.25;;;;;;;16.65;41.51;93436.41;4992380;28;20038;-73
2022/04/24 08:37:35;;;;;;;2.97;1.50;;;;;;;16.24;41.04;93424.56;4991221;28;20099;-71
2022/04/24 08:40:03;;;;;;;3.55;0.80;;;;;;;16.67;42.28;93423.38;4990667;28;20065;-70
2022/04/24 08:42:29;;;;;;;2.22;1.30;;;;;;;16.56;41.34;93416.31;4988624;28;20022;-72
2022/04/24 08:44:58;;;;;;;2.45;1.60;;;;;;;16.80;41.19;93429.34;4987054;28;20390;-72
2022/04/24 08:47:25;;;;;;;5.35;1.80;;;;;;;16.59;41.74;93429.00;4982217;28;20529;-71
2022/04/24 08:49:59;;;;;;;6.40;1.85;;;;;;;16.97;42.21;93426.13;4980617;28;20052;-71
2022/04/24 08:52:25;;;;;;;3.85;1.90;;;;;;;16.90;40.96;93422.59;4983781;28;20148;-71
2022/04/24 08:54:52;;;;;;;4.88;1.90;;;;;;;16.90;41.69;93404.56;4985287;28;20719;-71
2022/04/24 08:57:19;;;;;;;6.47;2.33;;;;;;;17.16;41.96;93401.88;4988115;28;20045;-71
2022/04/24 08:59:45;;;;;;;4.22;2.38;;;;;;;17.45;42.25;93413.00;4990743;28;20697;-70
2022/04/24 09:02:11;;;;;;;2.63;1.83;;;;;;;17.54;40.49;93410.81;4990289;28;20030;-71
2022/04/24 09:04:38;;;;;;;3.70;1.60;;;;;;;17.26;40.73;93399.72;4988458;28;20046;-71
2022/04/24 09:07:05;;;;;;;3.88;1.88;;;;;;;17.27;41.02;93411.97;4986228;28;20426;-72
2022/04/24 09:09:40;;;;;;;2.65;1.33;;;;;;;17.59;40.18;93405.88;4985500;28;20037;-71
2022/04/24 09:12:25;;;;;;;;;;;;;;;17.72;40.69;93392.19;4987835;28;20042;-71
2022/04/24 09:14:55;;;;;;;3.47;1.80;;;;;;;17.15;40.08;93394.97;4981323;28;20007;-72
2022/04/24 09:17:27;;;;;;;1.20;1.10;;;;;;;17.03;39.37;93397.84;4985081;28;20327;-72
2022/04/24 09:19:54;;;;;;;3.38;0.80;;;;;;;17.05;40.48;93389.41;5000229;28;20044;-72
2022/04/24 09:22:22;;;;;;;2.20;1.30;;;;;;;16.84;40.39;93397.94;4970012;28;20064;-72
2022/04/24 09:24:49;;;;;;;3.17;1.27;;;;;;;16.74;39.35;93385.13;4985873;28;20030;-71
2022/04/24 09:27:41;;;;;;;3.25;1.30;;;;;;;16.94;40.59;93372.38;4992114;28;20156;-73
2022/04/24 09:30:14;;;;;;;2.60;1.15;;;;;;;16.77;39.51;93363.69;4990956;28;21413;-72
2022/04/24 09:32:53;;;;;;;2.97;1.00;;;;;;;16.86;39.91;93371.50;4986557;28;20034;-70
2022/04/24 09:35:32;;;;;;;3.97;1.20;;;;;;;16.79;38.72;93374.09;4993466;28;20641;-72
2022/04/24 09:38:08;;;;;;;2.15;1.77;;;;;;;17.21;39.60;93375.84;4985541;28;20045;-71
2022/04/24 09:40:38;;;;;;;2.75;1.40;;;;;;;16.88;39.59;93368.44;4987514;28;21567;-72
2022/04/24 09:43:03;;;;;;;1.83;1.30;;;;;;;17.16;39.63;93374.22;4977162;28;20441;-72
2022/04/24 09:45:29;;;;;;;3.15;1.20;;;;;;;17.25;40.16;93377.44;4989821;28;20022;-72
2022/04/24 09:47:59;;;;;;;3.00;0.90;;;;;;;17.48;39.46;93353.13;4990943;28;20034;-70
2022/04/24 09:50:29;;;;;;;1.48;1.08;;;;;;;17.07;40.35;93352.97;4993938;28;20049;-71
2022/04/24 09:52:59;;;;;;;3.05;1.10;;;;;;;16.86;40.17;93355.41;4989729;28;20049;-71
2022/04/24 09:55:26;;;;;;;3.40;1.85;;;;;;;17.10;40.18;93344.22;4994630;28;20593;-71
2022/04/24 09:57:54;;;;;;;5.90;1.23;;;;;;;17.35;39.33;93343.75;4990391;28;20037;-72
2022/04/24 10:00:20;;;;;;;3.47;1.23;;;;;;;17.58;39.62;93349.78;4952485;28;20044;-71
2022/04/24 10:02:50;;;;;;;1.52;0.95;;;;;;;17.51;38.99;93330.88;4988462;28;20053;-71
2022/04/24 10:05:17;;;;;;;3.05;1.45;;;;;;;17.41;39.37;93336.91;4986808;28;20033;-72
2022/04/24 10:07:44;;;;;;;1.63;0.90;;;;;;;17.42;39.15;93333.06;4990777;28;20164;-72
2022/04/24 10:10:11;;;;;;;5.00;1.23;;;;;;;17.78;40.03;93331.53;4993149;28;20125;-71
2022/04/24 10:12:36;;;;;;;2.45;1.27;;;;;;;17.41;40.21;93326.94;4987166;28;20048;-71
2022/04/24 10:15:11;;;;;;;1.60;1.17;;;;;;;17.71;39.26;93329.56;4991317;28;20406;-71
2022/04/24 10:18:02;;;;;;;1.65;1.30;;;;;;;17.76;39.21;93326.53;4984198;28;20308;-71
2022/04/24 10:21:02;;;;;;;1.58;1.10;;;;;;;17.44;39.55;93306.63;4988696;28;20030;-70
2022/04/24 10:23:29;;;;;;;2.20;1.23;;;;;;;17.87;39.48;93311.28;4991218;28;20038;-71
2022/04/24 10:25:55;;;;;;;1.58;1.05;;;;;;;17.87;38.95;93316.66;5000320;28;20053;-70
2022/04/24 10:28:21;;;;;;;1.50;1.10;;;;;;;17.47;39.60;93309.34;4992590;28;20823;-71
2022/04/24 10:31:01;;;;;;;4.90;1.25;;;;;;;17.59;39.27;93300.25;4993603;28;20049;-71
2022/04/24 10:33:29;;;;;;;2.72;1.00;;;;;;;17.78;39.87;93318.09;4989210;28;20157;-72
2022/04/24 10:36:00;;;;;;;3.08;1.38;;;;;;;18.11;38.61;93317.25;4991794;28;20038;-72
2022/04/24 10:38:28;;;;;;;3.90;1.45;;;;;;;18.00;39.14;93307.19;4991983;28;20045;-72
2022/04/24 10:40:57;;;;;;;4.28;1.80;;;;;;;18.46;39.09;93309.47;4993301;28;20040;-71
2022/04/24 10:43:23;;;;;;;2.13;1.40;;;;;;;18.36;38.60;93304.78;4985769;28;20041;-71
2022/04/24 10:45:50;;;;;;;4.90;1.73;;;;;;;18.14;39.50;93255.38;4995498;28;20033;-71
2022/04/24 10:48:16;;;;;;;2.92;1.27;;;;;;;18.54;39.60;93286.81;4985189;28;20056;-71
2022/04/24 10:50:54;;;;;;;1.73;1.50;;;;;;;18.30;38.20;93295.50;4991011;28;20593;-71
2022/04/24 10:53:19;;;;;;;2.67;1.15;;;;;;;18.53;38.11;93287.97;4982520;28;21084;-71
2022/04/24 10:55:46;;;;;;;5.35;1.10;;;;;;;18.67;38.67;93289.97;4991792;28;20093;-71
2022/04/24 10:58:11;;;;;;;3.72;1.17;;;;;;;18.86;38.17;93285.13;4994135;28;20092;-71
2022/04/24 11:00:38;;;;;;;3.95;1.20;;;;;;;18.86;37.25;93273.56;4991059;28;20026;-70
2022/04/24 11:03:13;;;;;;;2.40;1.05;;;;;;;19.24;37.32;93294.50;4988316;28;20042;-71
2022/04/24 11:05:41;;;;;;;2.72;1.42;;;;;;;18.96;36.52;93288.25;4986585;28;20025;-71
2022/04/24 11:08:08;;;;;;;3.83;1.35;;;;;;;19.17;35.96;93277.53;4991421;28;21301;-70
2022/04/24 11:10:39;;;;;;;4.32;1.40;;;;;;;19.17;35.53;93288.31;4993325;28;20049;-71
2022/04/24 11:13:09;;;;;;;1.88;1.10;;;;;;;19.44;36.47;93281.47;4989068;28;20041;-72
2022/04/24 11:15:34;;;;;;;2.20;1.40;;;;;;;19.69;35.44;93271.56;4986862;28;20030;-72
2022/04/24 11:18:00;;;;;;;2.70;1.10;;;;;;;19.79;33.73;93253.06;4993973;28;20036;-71
2022/04/24 11:20:31;;;;;;;3.05;1.20;;;;;;;19.72;34.61;93254.59;4991981;28;20076;-72
2022/04/24 11:22:57;;;;;;;1.95;1.20;;;;;;;19.51;35.85;93243.75;4983272;28;20026;-71
2022/04/24 11:25:24;;;;;;;4.63;1.45;;;;;;;19.40;35.83;93224.09;4993360;28;20030;-74
2022/04/24 11:27:52;;;;;;;9.50;1.58;;;;;;;19.72;35.96;93249.19;4983524;28;21301;-71
2022/04/24 11:30:20;;;;;;;5.45;1.65;;;;;;;19.72;35.53;93249.19;4988839;28;20506;-72
2022/04/24 11:33:14;;;;;;;5.22;2.00;;;;;;;19.91;37.01;93245.34;4984311;28;20026;-71
2022/04/24 11:35:40;;;;;;;3.03;1.23;;;;;;;20.22;35.72;93235.75;4978271;28;20033;-71